createdAt,value
2023-02-11T00:01:45.003Z,102699.06
2023-02-11T00:03:53.889Z,102696.16
2023-02-11T00:05:59.528Z,102695.66
2023-02-11T00:08:01.063Z,102694.56
2023-02-11T00:10:04.342Z,102698.13
2023-02-11T00:12:06.166Z,102692.31
2023-02-11T00:14:10.292Z,102693.09
2023-02-11T00:16:15.505Z,102690.88
2023-02-11T00:18:17.482Z,102692.31
2023-02-11T00:20:19.303Z,102689.00
2023-02-11T00:22:21.202Z,102684.66
2023-02-11T00:24:22.786Z,102686.78
2023-02-11T00:26:27.951Z,102685.59
2023-02-11T00:28:29.894Z,102683.44
2023-02-11T00:30:31.654Z,102683.03
2023-02-11T00:32:33.225Z,102684.81
2023-02-11T00:34:35.300Z,102687.50
2023-02-11T00:36:36.857Z,102688.94
2023-02-11T00:38:38.463Z,102685.03
2023-02-11T00:40:43.160Z,102680.47
2023-02-11T00:42:46.276Z,102689.66
2023-02-11T00:44:47.835Z,102687.34
2023-02-11T00:46:49.397Z,102683.94
2023-02-11T00:48:51.367Z,102681.78
2023-02-11T00:50:54.151Z,102670.63
2023-02-11T00:52:55.712Z,102676.59
2023-02-11T00:54:57.457Z,102675.41
2023-02-11T00:56:59.107Z,102674.03
2023-02-11T00:59:02.069Z,102674.63
2023-02-11T01:01:04.387Z,102670.28
2023-02-11T01:03:06.260Z,102677.00
2023-02-11T01:05:08.418Z,102668.13
2023-02-11T01:07:10.088Z,102683.16
2023-02-11T01:09:11.730Z,102676.41
2023-02-11T01:11:16.713Z,102685.09
2023-02-11T01:13:18.318Z,102678.44
2023-02-11T01:15:22.083Z,102675.56
2023-02-11T01:17:23.921Z,102679.22
2023-02-11T01:19:25.539Z,102675.06
2023-02-11T01:21:27.293Z,102669.19
2023-02-11T01:23:29.021Z,102666.28
2023-02-11T01:25:30.635Z,102671.63
2023-02-11T01:27:32.552Z,102672.88
2023-02-11T01:29:34.239Z,102666.34
2023-02-11T01:31:37.336Z,102668.94
2023-02-11T01:33:39.431Z,102668.75
2023-02-11T01:35:41.628Z,102663.78
2023-02-11T01:37:43.290Z,102667.22
2023-02-11T01:39:44.926Z,102661.50
2023-02-11T01:41:46.580Z,102659.44
2023-02-11T01:43:49.921Z,102656.31
2023-02-11T01:46:02.567Z,102655.06
2023-02-11T01:48:05.774Z,102654.56
2023-02-11T01:50:07.460Z,102648.66
2023-02-11T01:52:14.657Z,102649.13
2023-02-11T01:54:21.994Z,102637.88
2023-02-11T01:56:25.746Z,102641.13
2023-02-11T01:58:29.363Z,102639.81
2023-02-11T02:00:35.010Z,102627.91
2023-02-11T02:02:42.904Z,102629.94
2023-02-11T02:04:52.928Z,102626.09
2023-02-11T02:06:59.969Z,102626.09
2023-02-11T02:09:05.454Z,102626.66
2023-02-11T02:11:10.818Z,102616.91
2023-02-11T02:13:15.614Z,102612.44
2023-02-11T02:15:27.101Z,102616.78
2023-02-11T02:17:40.678Z,102606.94
2023-02-11T02:20:15.648Z,102613.91
2023-02-11T02:22:58.790Z,102600.75
2023-02-11T02:25:15.606Z,102607.88
2023-02-11T02:27:32.901Z,102600.66
2023-02-11T02:30:07.516Z,102594.09
2023-02-11T02:32:47.678Z,102591.25
2023-02-11T02:34:55.999Z,102585.00
2023-02-11T02:37:08.102Z,102585.00
2023-02-11T02:39:14.492Z,102576.47
2023-02-11T02:41:21.056Z,102576.91
2023-02-11T02:43:24.157Z,102580.41
2023-02-11T02:45:25.701Z,102579.56
2023-02-11T02:47:27.400Z,102583.97
2023-02-11T02:49:31.690Z,102578.72
2023-02-11T02:52:08.570Z,102571.69
2023-02-11T02:54:33.540Z,102576.88
2023-02-11T02:56:45.340Z,102575.66
2023-02-11T02:58:56.875Z,102567.56
2023-02-11T03:01:08.333Z,102568.16
2023-02-11T03:03:18.991Z,102575.53
2023-02-11T03:05:29.081Z,102575.53
2023-02-11T03:07:40.009Z,102572.59
2023-02-11T03:09:48.911Z,102569.53
2023-02-11T03:11:50.532Z,102572.59
2023-02-11T03:13:54.549Z,102582.25
2023-02-11T03:15:58.655Z,102582.91
2023-02-11T03:18:03.141Z,102576.25
2023-02-11T03:20:06.952Z,102583.03
2023-02-11T03:22:13.598Z,102577.91
2023-02-11T03:24:20.710Z,102581.72
2023-02-11T03:26:28.199Z,102592.06
2023-02-11T03:28:33.338Z,102592.41
2023-02-11T03:30:40.478Z,102601.63
2023-02-11T03:32:49.334Z,102603.69
2023-02-11T03:34:56.519Z,102604.44
2023-02-11T03:37:02.210Z,102595.75
2023-02-11T03:39:06.258Z,102592.91
2023-02-11T03:41:11.284Z,102588.97
2023-02-11T03:43:17.490Z,102585.06
2023-02-11T03:45:22.159Z,102579.66
2023-02-11T03:47:27.834Z,102579.84
2023-02-11T03:49:32.567Z,102575.53
2023-02-11T03:51:35.478Z,102566.84
2023-02-11T03:53:40.626Z,102566.84
2023-02-11T03:55:43.940Z,102562.34
2023-02-11T03:57:47.414Z,102560.50
2023-02-11T03:59:57.127Z,102567.50
2023-02-11T04:02:01.639Z,102566.28
2023-02-11T04:04:03.511Z,102565.75
2023-02-11T04:06:05.814Z,102569.59
2023-02-11T04:08:08.221Z,102560.44
2023-02-11T04:10:12.157Z,102554.66
2023-02-11T04:12:13.790Z,102552.09
2023-02-11T04:14:16.774Z,102552.09
2023-02-11T04:16:18.451Z,102559.75
2023-02-11T04:18:20.045Z,102548.28
2023-02-11T04:20:21.656Z,102537.34
2023-02-11T04:22:23.309Z,102540.19
2023-02-11T04:24:25.042Z,102535.78
2023-02-11T04:26:26.792Z,102535.63
2023-02-11T04:28:28.423Z,102534.78
2023-02-11T04:30:31.431Z,102527.78
2023-02-11T04:32:32.983Z,102521.81
2023-02-11T04:34:34.709Z,102513.03
2023-02-11T04:36:36.233Z,102511.50
2023-02-11T04:38:37.808Z,102509.56
2023-02-11T04:40:39.486Z,102509.03
2023-02-11T04:42:41.409Z,102510.03
2023-02-11T04:44:43.054Z,102511.53
2023-02-11T04:46:45.981Z,102505.41
2023-02-11T04:48:47.536Z,102501.50
2023-02-11T04:50:49.109Z,102502.59
2023-02-11T04:52:50.700Z,102514.41
2023-02-11T04:54:52.268Z,102516.91
2023-02-11T04:56:53.869Z,102530.81
2023-02-11T04:58:55.504Z,102535.09
2023-02-11T05:01:05.966Z,102544.34
2023-02-11T05:03:09.007Z,102531.91
2023-02-11T05:05:10.564Z,102531.47
2023-02-11T05:07:12.144Z,102536.16
2023-02-11T05:09:14.143Z,102538.22
2023-02-11T05:11:18.746Z,102535.25
2023-02-11T05:13:20.317Z,102529.72
2023-02-11T05:15:21.863Z,102536.34
2023-02-11T05:17:23.597Z,102551.00
2023-02-11T05:19:26.580Z,102548.59
2023-02-11T05:21:28.372Z,102541.78
2023-02-11T05:23:29.937Z,102557.59
2023-02-11T05:25:31.515Z,102567.72
2023-02-11T05:27:33.656Z,102562.13
2023-02-11T05:29:35.543Z,102558.63
2023-02-11T05:31:37.066Z,102550.81
2023-02-11T05:33:38.620Z,102547.94
2023-02-11T05:35:41.611Z,102542.78
2023-02-11T05:37:43.483Z,102533.84
2023-02-11T05:39:45.193Z,102524.28
2023-02-11T05:41:46.755Z,102521.25
2023-02-11T05:43:48.411Z,102516.56
2023-02-11T05:45:50.491Z,102522.81
2023-02-11T05:47:52.374Z,102528.34
2023-02-11T05:49:54.074Z,102524.00
2023-02-11T05:51:59.364Z,102524.47
2023-02-11T05:54:01.073Z,102521.34
2023-02-11T05:56:02.855Z,102528.63
2023-02-11T05:58:06.220Z,102526.75
2023-02-11T06:00:09.348Z,102528.31
2023-02-11T06:02:11.176Z,102527.28
2023-02-11T06:04:12.828Z,102524.63
2023-02-11T06:06:14.434Z,102523.59
2023-02-11T06:08:17.313Z,102524.63
2023-02-11T06:10:19.993Z,102522.31
2023-02-11T06:12:23.254Z,102529.50
2023-02-11T06:14:24.845Z,102532.31
2023-02-11T06:16:26.446Z,102538.25
2023-02-11T06:18:28.526Z,102533.56
2023-02-11T06:20:30.291Z,102527.41
2023-02-11T06:22:31.854Z,102516.72
2023-02-11T06:24:58.515Z,102506.03
2023-02-11T06:26:56.479Z,102514.69
2023-02-11T06:28:59.709Z,102520.84
2023-02-11T06:31:05.439Z,102519.84
2023-02-11T06:33:07.183Z,102519.13
2023-02-11T06:35:11.646Z,102524.38
2023-02-11T06:37:13.561Z,102528.53
2023-02-11T06:39:15.134Z,102539.41
2023-02-11T06:41:19.473Z,102539.41
2023-02-11T06:43:21.074Z,102537.28
2023-02-11T06:45:22.663Z,102534.16
2023-02-11T06:47:24.247Z,102542.38
2023-02-11T06:49:25.976Z,102542.75
2023-02-11T06:51:27.542Z,102543.56
2023-02-11T06:53:29.204Z,102538.84
2023-02-11T06:55:30.926Z,102532.69
2023-02-11T06:57:33.836Z,102533.88
2023-02-11T06:59:35.502Z,102536.19
2023-02-11T07:01:37.115Z,102536.19
2023-02-11T07:03:40.478Z,102549.38
2023-02-11T07:05:42.887Z,102550.75
2023-02-11T07:07:44.426Z,102547.06
2023-02-11T07:09:45.994Z,102549.19
2023-02-11T07:11:47.921Z,102552.22
2023-02-11T07:13:51.623Z,102559.41
2023-02-11T07:15:53.439Z,102551.97
2023-02-11T07:17:55.249Z,102542.19
2023-02-11T07:19:56.879Z,102531.88
2023-02-11T07:21:58.649Z,102532.16
2023-02-11T07:24:00.321Z,102531.69
2023-02-11T07:26:03.785Z,102541.00
2023-02-11T07:28:05.613Z,102550.28
2023-02-11T07:30:13.531Z,102546.72
2023-02-11T07:32:15.187Z,102548.72
2023-02-11T07:34:16.772Z,102543.84
2023-02-11T07:36:18.420Z,102539.59
2023-02-11T07:38:20.007Z,102545.13
2023-02-11T07:40:21.645Z,102541.81
2023-02-11T07:42:23.283Z,102548.16
2023-02-11T07:44:24.789Z,102540.25
2023-02-11T07:46:28.181Z,102556.53
2023-02-11T07:48:30.067Z,102556.09
2023-02-11T07:50:31.663Z,102562.25
2023-02-11T07:52:33.225Z,102556.34
2023-02-11T07:54:34.806Z,102557.72
2023-02-11T07:56:36.302Z,102559.72
2023-02-11T07:58:39.009Z,102556.47
2023-02-11T08:00:40.645Z,102558.41
2023-02-11T08:02:46.774Z,102553.72
2023-02-11T08:04:48.395Z,102554.91
2023-02-11T08:06:49.984Z,102554.91
2023-02-11T08:08:51.930Z,102553.88
2023-02-11T08:10:53.465Z,102564.09
2023-02-11T08:12:55.143Z,102555.72
2023-02-11T08:14:56.702Z,102547.97
2023-02-11T08:16:58.510Z,102547.13
2023-02-11T08:19:03.959Z,102549.81
2023-02-11T08:21:10.269Z,102557.44
2023-02-11T08:23:11.794Z,102553.75
2023-02-11T08:25:13.477Z,102554.56
2023-02-11T08:27:15.054Z,102547.47
2023-02-11T08:29:19.589Z,102551.66
2023-02-11T08:31:23.384Z,102552.25
2023-02-11T08:33:25.072Z,102553.91
2023-02-11T08:35:28.231Z,102555.00
2023-02-11T08:37:32.038Z,102556.00
2023-02-11T08:39:34.569Z,102559.38
2023-02-11T08:41:36.081Z,102553.75
2023-02-11T08:43:37.953Z,102551.38
2023-02-11T08:45:39.572Z,102548.59
2023-02-11T08:47:43.464Z,102547.22
2023-02-11T08:49:45.014Z,102545.56
2023-02-11T08:51:48.691Z,102550.84
2023-02-11T08:53:51.309Z,102548.66
2023-02-11T08:55:55.042Z,102545.63
2023-02-11T08:57:56.630Z,102550.00
2023-02-11T08:59:58.376Z,102555.81
2023-02-11T09:02:00.048Z,102560.00
2023-02-11T09:04:01.708Z,102565.84
2023-02-11T09:06:05.465Z,102571.47
2023-02-11T09:08:08.463Z,102567.22
2023-02-11T09:10:10.269Z,102569.91
2023-02-11T09:12:11.837Z,102576.13
2023-02-11T09:14:17.422Z,102575.53
2023-02-11T09:16:21.584Z,102575.56
2023-02-11T09:18:23.352Z,102582.22
2023-02-11T09:20:25.526Z,102577.69
2023-02-11T09:22:27.203Z,102585.34
2023-02-11T09:24:30.061Z,102584.75
2023-02-11T09:26:33.758Z,102584.97
2023-02-11T09:28:35.437Z,102588.47
2023-02-11T09:30:37.933Z,102588.06
2023-02-11T09:32:39.642Z,102586.16
2023-02-11T09:34:41.331Z,102577.69
2023-02-11T09:36:42.960Z,102581.19
2023-02-11T09:38:45.824Z,102579.34
2023-02-11T09:40:50.099Z,102575.59
2023-02-11T09:43:01.773Z,102577.84
2023-02-11T09:45:10.772Z,102577.03
2023-02-11T09:47:24.097Z,102580.72
2023-02-11T09:49:34.857Z,102575.16
2023-02-11T09:51:42.357Z,102576.78
2023-02-11T09:53:44.045Z,102576.81
2023-02-11T09:55:49.592Z,102574.75
2023-02-11T09:57:51.436Z,102582.84
2023-02-11T09:59:52.997Z,102575.81
2023-02-11T10:01:58.790Z,102579.97
2023-02-11T10:04:08.611Z,102568.38
2023-02-11T10:06:25.410Z,102568.59
2023-02-11T10:08:38.442Z,102571.06
2023-02-11T10:10:47.689Z,102583.84
2023-02-11T10:13:13.643Z,102580.13
2023-02-11T10:15:24.129Z,102572.88
2023-02-11T10:17:35.785Z,102571.19
2023-02-11T10:20:01.474Z,102571.41
2023-02-11T10:22:09.979Z,102569.13
2023-02-11T10:24:14.578Z,102570.38
2023-02-11T10:26:18.050Z,102571.41
2023-02-11T10:28:23.382Z,102581.09
2023-02-11T10:30:30.904Z,102570.72
2023-02-11T10:32:39.226Z,102569.06
2023-02-11T10:34:41.807Z,102569.63
2023-02-11T10:36:44.868Z,102570.81
2023-02-11T10:38:46.536Z,102567.91
2023-02-11T10:40:48.306Z,102564.34
2023-02-11T10:42:55.499Z,102566.41
2023-02-11T10:45:02.416Z,102567.41
2023-02-11T10:47:09.515Z,102560.56
2023-02-11T10:49:35.151Z,102556.72
2023-02-11T10:51:36.797Z,102558.56
2023-02-11T10:53:38.854Z,102565.56
2023-02-11T10:55:50.253Z,102563.63
2023-02-11T10:57:57.753Z,102564.84
2023-02-11T11:00:06.146Z,102564.44
2023-02-11T11:02:23.390Z,102560.84
2023-02-11T11:04:35.308Z,102562.31
2023-02-11T11:06:36.939Z,102562.09
2023-02-11T11:08:41.806Z,102556.06
2023-02-11T11:10:45.956Z,102556.50
2023-02-11T11:12:48.804Z,102566.84
2023-02-11T11:14:54.645Z,102565.19
2023-02-11T11:16:57.531Z,102568.28
2023-02-11T11:19:20.428Z,102562.13
2023-02-11T11:21:24.265Z,102557.91
2023-02-11T11:23:27.073Z,102566.81
2023-02-11T11:25:30.214Z,102565.50
2023-02-11T11:27:32.547Z,102568.03
2023-02-11T11:29:38.588Z,102566.41
2023-02-11T11:31:49.165Z,102564.06
2023-02-11T11:33:56.088Z,102574.25
2023-02-11T11:36:01.206Z,102570.81
2023-02-11T11:38:04.940Z,102580.94
2023-02-11T11:40:10.273Z,102579.13
2023-02-11T11:42:26.272Z,102582.94
2023-02-11T11:44:31.512Z,102579.94
2023-02-11T11:46:35.866Z,102582.16
2023-02-11T11:48:40.064Z,102573.72
2023-02-11T11:50:47.180Z,102571.97
2023-02-11T11:52:54.231Z,102559.50
2023-02-11T11:55:01.923Z,102557.22
2023-02-11T11:57:12.430Z,102549.47
2023-02-11T11:59:14.377Z,102550.66
2023-02-11T12:01:25.684Z,102538.88
2023-02-11T12:04:13.990Z,102542.03
2023-02-11T12:06:27.904Z,102542.94
2023-02-11T12:08:42.669Z,102535.16
2023-02-11T12:11:01.643Z,102531.47
2023-02-11T12:13:16.195Z,102527.91
2023-02-11T12:15:31.074Z,102519.72
2023-02-11T12:17:49.700Z,102515.25
2023-02-11T12:20:25.779Z,102526.25
2023-02-11T12:22:39.686Z,102523.88
2023-02-11T12:24:54.575Z,102529.34
2023-02-11T12:27:01.237Z,102525.50
2023-02-11T12:29:13.876Z,102523.53
2023-02-11T12:31:27.837Z,102521.56
2023-02-11T12:33:42.769Z,102517.38
2023-02-11T12:35:56.450Z,102518.25
2023-02-11T12:38:32.252Z,102515.06
2023-02-11T12:40:43.621Z,102517.03
2023-02-11T12:42:55.494Z,102519.19
2023-02-11T12:45:12.300Z,102516.72
2023-02-11T12:47:22.836Z,102518.91
2023-02-11T12:49:38.134Z,102531.41
2023-02-11T12:52:03.146Z,102525.97
2023-02-11T12:54:20.315Z,102534.72
2023-02-11T12:56:29.444Z,102526.50
2023-02-11T12:58:44.892Z,102519.53
2023-02-11T13:00:54.161Z,102522.75
2023-02-11T13:03:02.673Z,102516.94
2023-02-11T13:05:14.357Z,102517.91
2023-02-11T13:07:23.550Z,102516.63
2023-02-11T13:09:32.358Z,102522.56
2023-02-11T13:11:38.603Z,102532.00
2023-02-11T13:13:50.523Z,102520.19
2023-02-11T13:15:56.077Z,102517.22
2023-02-11T13:18:04.368Z,102508.66
2023-02-11T13:20:18.090Z,102508.53
2023-02-11T13:22:24.348Z,102511.69
2023-02-11T13:24:36.890Z,102515.50
2023-02-11T13:26:46.071Z,102511.59
2023-02-11T13:28:54.495Z,102512.53
2023-02-11T13:30:56.658Z,102509.72
2023-02-11T13:33:20.935Z,102503.25
2023-02-11T13:35:28.864Z,102504.31
2023-02-11T13:37:36.136Z,102509.63
2023-02-11T13:39:39.333Z,102510.53
2023-02-11T13:41:41.930Z,102511.13
2023-02-11T13:43:44.867Z,102508.91
2023-02-11T13:45:48.428Z,102505.84
2023-02-11T13:47:56.899Z,102497.28
2023-02-11T13:50:01.447Z,102503.50
2023-02-11T13:52:05.841Z,102498.34
2023-02-11T13:54:17.334Z,102500.44
2023-02-11T13:56:31.620Z,102505.84
2023-02-11T13:58:38.055Z,102507.50
2023-02-11T14:00:45.387Z,102511.03
2023-02-11T14:03:24.019Z,102507.97
2023-02-11T14:05:30.949Z,102506.22
2023-02-11T14:07:33.791Z,102506.09
2023-02-11T14:09:40.561Z,102507.50
2023-02-11T14:11:47.264Z,102501.19
2023-02-11T14:14:34.391Z,102503.50
2023-02-11T14:17:11.254Z,102497.84
2023-02-11T14:19:31.253Z,102496.59
2023-02-11T14:21:36.387Z,102500.56
2023-02-11T14:23:38.071Z,102500.09
2023-02-11T14:25:43.569Z,102498.47
2023-02-11T14:27:55.281Z,102501.28
2023-02-11T14:30:31.857Z,102501.38
2023-02-11T14:32:42.593Z,102508.00
2023-02-11T14:34:55.697Z,102505.50
2023-02-11T14:37:14.565Z,102510.31
2023-02-11T14:39:25.469Z,102503.97
2023-02-11T14:41:29.594Z,102507.38
2023-02-11T14:43:37.532Z,102514.88
2023-02-11T14:45:39.615Z,102514.31
2023-02-11T14:47:45.136Z,102517.91
2023-02-11T14:49:49.301Z,102520.84
2023-02-11T14:51:52.648Z,102521.91
2023-02-11T14:53:58.515Z,102523.75
2023-02-11T14:56:00.354Z,102519.06
2023-02-11T14:58:06.737Z,102518.00
2023-02-11T15:00:18.194Z,102522.59
2023-02-11T15:02:25.573Z,102527.25
2023-02-11T15:04:29.793Z,102529.84
2023-02-11T15:06:36.547Z,102527.34
2023-02-11T15:08:43.495Z,102529.69
2023-02-11T15:10:45.542Z,102528.66
2023-02-11T15:12:47.459Z,102526.19
2023-02-11T15:14:50.976Z,102525.34
2023-02-11T15:16:55.926Z,102525.13
2023-02-11T15:19:02.264Z,102527.22
2023-02-11T15:21:05.206Z,102526.59
2023-02-11T15:23:17.584Z,102527.84
2023-02-11T15:25:19.443Z,102529.06
2023-02-11T15:27:21.119Z,102530.16
2023-02-11T15:29:24.439Z,102524.59
2023-02-11T15:31:27.931Z,102533.16
2023-02-11T15:33:30.834Z,102533.31
2023-02-11T15:35:34.495Z,102538.00
2023-02-11T15:37:36.106Z,102536.13
2023-02-11T15:39:41.017Z,102537.53
2023-02-11T15:41:42.689Z,102528.41
2023-02-11T15:43:46.807Z,102528.03
2023-02-11T15:45:59.192Z,102531.09
2023-02-11T15:48:06.833Z,102531.72
2023-02-11T15:50:21.072Z,102539.31
2023-02-11T15:52:26.292Z,102541.88
2023-02-11T15:54:30.920Z,102546.53
2023-02-11T15:56:38.552Z,102539.72
2023-02-11T15:58:42.522Z,102535.63
2023-02-11T16:00:47.399Z,102537.94
2023-02-11T16:02:49.450Z,102550.06
2023-02-11T16:04:54.328Z,102547.00
2023-02-11T16:06:56.825Z,102543.09
2023-02-11T16:09:01.086Z,102543.34
2023-02-11T16:11:04.765Z,102540.84
2023-02-11T16:13:20.015Z,102550.81
2023-02-11T16:15:43.064Z,102553.72
2023-02-11T16:17:44.804Z,102548.22
2023-02-11T16:19:48.483Z,102555.84
2023-02-11T16:21:50.939Z,102550.47
2023-02-11T16:23:54.849Z,102551.50
2023-02-11T16:26:03.497Z,102554.19
2023-02-11T16:28:05.509Z,102556.66
2023-02-11T16:30:26.461Z,102566.16
2023-02-11T16:32:30.114Z,102567.59
2023-02-11T16:34:31.758Z,102572.16
2023-02-11T16:36:33.343Z,102568.56
2023-02-11T16:38:35.391Z,102571.41
2023-02-11T16:40:36.937Z,102563.75
2023-02-11T16:42:38.600Z,102560.47
2023-02-11T16:44:40.494Z,102557.78
2023-02-11T16:46:43.931Z,102565.28
2023-02-11T16:48:45.959Z,102566.31
2023-02-11T16:50:51.500Z,102567.13
2023-02-11T16:52:54.904Z,102567.13
2023-02-11T16:54:56.558Z,102561.75
2023-02-11T16:56:58.180Z,102561.97
2023-02-11T16:58:59.846Z,102570.31
2023-02-11T17:01:01.604Z,102564.69
2023-02-11T17:03:07.732Z,102565.88
2023-02-11T17:05:18.205Z,102563.63
2023-02-11T17:07:19.924Z,102565.47
2023-02-11T17:09:24.576Z,102569.81
2023-02-11T17:11:26.546Z,102570.88
2023-02-11T17:13:28.220Z,102576.88
2023-02-11T17:15:29.894Z,102574.16
2023-02-11T17:17:36.692Z,102577.09
2023-02-11T17:19:40.133Z,102574.03
2023-02-11T17:21:42.288Z,102572.16
2023-02-11T17:23:43.858Z,102566.75
2023-02-11T17:25:45.997Z,102565.00
2023-02-11T17:27:47.623Z,102561.69
2023-02-11T17:29:49.392Z,102568.72
2023-02-11T17:31:52.608Z,102567.88
2023-02-11T17:33:54.239Z,102572.03
2023-02-11T17:35:57.210Z,102570.47
2023-02-11T17:37:59.027Z,102562.97
2023-02-11T17:40:00.643Z,102570.09
2023-02-11T17:42:02.538Z,102573.59
2023-02-11T17:44:04.676Z,102586.25
2023-02-11T17:46:07.388Z,102590.81
2023-02-11T17:48:08.973Z,102587.06
2023-02-11T17:50:11.154Z,102589.16
2023-02-11T17:52:14.212Z,102587.75
2023-02-11T17:54:20.394Z,102592.28
2023-02-11T17:56:22.076Z,102590.88
2023-02-11T17:58:23.783Z,102588.25
2023-02-11T18:00:25.773Z,102594.19
2023-02-11T18:02:27.648Z,102599.69
2023-02-11T18:04:29.959Z,102598.28
2023-02-11T18:06:31.859Z,102603.44
2023-02-11T18:08:38.395Z,102598.28
2023-02-11T18:10:41.583Z,102604.09
2023-02-11T18:12:43.236Z,102606.06
2023-02-11T18:14:44.879Z,102611.63
2023-02-11T18:16:50.264Z,102605.69
2023-02-11T18:18:51.891Z,102612.72
2023-02-11T18:20:57.595Z,102616.88
2023-02-11T18:22:59.653Z,102617.25
2023-02-11T18:25:02.658Z,102608.94
2023-02-11T18:27:04.311Z,102605.63
2023-02-11T18:29:06.094Z,102607.47
2023-02-11T18:31:09.507Z,102601.28
2023-02-11T18:33:11.447Z,102606.44
2023-02-11T18:35:15.006Z,102603.34
2023-02-11T18:37:16.781Z,102613.91
2023-02-11T18:39:19.183Z,102613.91
2023-02-11T18:41:22.285Z,102618.47
2023-02-11T18:43:24.301Z,102608.50
2023-02-11T18:45:26.047Z,102607.69
2023-02-11T18:47:30.702Z,102613.47
2023-02-11T18:49:33.256Z,102606.00
2023-02-11T18:51:34.889Z,102615.94
2023-02-11T18:53:37.179Z,102615.13
2023-02-11T18:55:39.388Z,102626.94
2023-02-11T18:57:42.456Z,102614.94
2023-02-11T18:59:46.917Z,102617.25
2023-02-11T19:01:48.502Z,102622.28
2023-02-11T19:03:50.492Z,102618.81
2023-02-11T19:05:52.582Z,102620.06
2023-02-11T19:07:56.141Z,102615.06
2023-02-11T19:09:57.885Z,102616.28
2023-02-11T19:12:01.640Z,102605.88
2023-02-11T19:14:09.286Z,102601.34
2023-02-11T19:16:11.934Z,102603.19
2023-02-11T19:18:15.062Z,102605.06
2023-02-11T19:20:16.993Z,102601.94
2023-02-11T19:22:21.521Z,102604.22
2023-02-11T19:24:24.292Z,102607.75
2023-02-11T19:26:27.036Z,102603.78
2023-02-11T19:28:28.719Z,102605.44
2023-02-11T19:30:32.050Z,102612.91
2023-02-11T19:32:33.792Z,102612.31
2023-02-11T19:34:37.210Z,102606.72
2023-02-11T19:36:42.402Z,102611.06
2023-02-11T19:38:45.092Z,102613.16
2023-02-11T19:40:54.803Z,102621.84
2023-02-11T19:42:56.868Z,102617.69
2023-02-11T19:44:58.846Z,102621.44
2023-02-11T19:47:02.189Z,102625.63
2023-02-11T19:49:05.077Z,102619.81
2023-02-11T19:51:13.082Z,102620.00
2023-02-11T19:53:15.334Z,102633.28
2023-02-11T19:55:17.329Z,102629.38
2023-02-11T19:57:21.868Z,102633.09
2023-02-11T19:59:23.922Z,102633.72
2023-02-11T20:01:26.289Z,102627.94
2023-02-11T20:03:29.453Z,102627.34
2023-02-11T20:05:31.195Z,102630.03
2023-02-11T20:07:32.823Z,102635.78
2023-02-11T20:09:34.539Z,102628.94
2023-02-11T20:11:40.749Z,102635.50
2023-02-11T20:13:42.829Z,102640.69
2023-02-11T20:15:46.567Z,102643.38
2023-02-11T20:17:48.902Z,102640.91
2023-02-11T20:19:52.160Z,102637.59
2023-02-11T20:21:54.898Z,102637.41
2023-02-11T20:23:57.156Z,102645.25
2023-02-11T20:25:58.809Z,102641.94
2023-02-11T20:28:00.523Z,102642.97
2023-02-11T20:30:02.270Z,102640.94
2023-02-11T20:32:04.840Z,102646.56
2023-02-11T20:34:06.678Z,102647.59
2023-02-11T20:36:12.613Z,102640.94
2023-02-11T20:38:15.820Z,102637.88
2023-02-11T20:40:18.029Z,102645.16
2023-02-11T20:42:19.699Z,102644.53
2023-02-11T20:44:23.304Z,102653.03
2023-02-11T20:46:27.880Z,102643.31
2023-02-11T20:48:30.366Z,102646.00
2023-02-11T20:50:33.551Z,102647.22
2023-02-11T20:52:36.549Z,102639.75
2023-02-11T20:54:38.453Z,102636.47
2023-02-11T20:56:40.198Z,102644.53
2023-02-11T20:58:42.103Z,102639.16
2023-02-11T21:00:43.887Z,102632.34
2023-02-11T21:02:45.649Z,102631.50
2023-02-11T21:04:47.309Z,102641.66
2023-02-11T21:06:52.852Z,102641.22
2023-02-11T21:08:55.894Z,102640.41
2023-02-11T21:10:58.182Z,102645.56
2023-02-11T21:13:00.159Z,102645.56
2023-02-11T21:15:06.659Z,102635.03
2023-02-11T21:17:08.458Z,102629.66
2023-02-11T21:19:10.391Z,102624.03
2023-02-11T21:21:12.196Z,102630.88
2023-02-11T21:23:13.854Z,102635.03
2023-02-11T21:25:17.308Z,102630.09
2023-02-11T21:27:20.155Z,102632.34
2023-02-11T21:29:22.210Z,102635.47
2023-02-11T21:31:31.540Z,102632.91
2023-02-11T21:33:33.467Z,102636.94
2023-02-11T21:35:36.380Z,102637.31
2023-02-11T21:37:38.266Z,102638.97
2023-02-11T21:39:39.994Z,102639.63
2023-02-11T21:41:43.121Z,102644.81
2023-02-11T21:43:45.328Z,102645.63
2023-02-11T21:45:49.670Z,102643.59
2023-02-11T21:47:51.774Z,102648.16
2023-02-11T21:49:53.498Z,102649.78
2023-02-11T21:52:00.632Z,102656.81
2023-02-11T21:54:02.718Z,102649.22
2023-02-11T21:56:06.775Z,102651.06
2023-02-11T21:58:12.209Z,102658.31
2023-02-11T22:00:16.365Z,102664.31
2023-02-11T22:02:18.258Z,102668.47
2023-02-11T22:04:20.071Z,102661.25
2023-02-11T22:06:23.863Z,102664.78
2023-02-11T22:08:43.511Z,102669.34
2023-02-11T22:10:45.173Z,102675.19
2023-02-11T22:12:47.152Z,102680.59
2023-02-11T22:14:50.482Z,102679.38
2023-02-11T22:16:52.421Z,102672.38
2023-02-11T22:18:56.006Z,102673.22
2023-02-11T22:20:59.778Z,102665.31
2023-02-11T22:23:01.478Z,102676.69
2023-02-11T22:25:03.299Z,102676.91
2023-02-11T22:27:05.635Z,102670.25
2023-02-11T22:29:07.301Z,102670.22
2023-02-11T22:31:12.397Z,102669.19
2023-02-11T22:33:14.536Z,102668.34
2023-02-11T22:35:16.239Z,102672.69
2023-02-11T22:37:17.877Z,102669.19
2023-02-11T22:39:19.910Z,102662.97
2023-02-11T22:41:24.051Z,102665.22
2023-02-11T22:43:27.192Z,102662.53
2023-02-11T22:45:28.806Z,102660.88
2023-02-11T22:47:31.856Z,102667.72
2023-02-11T22:49:33.622Z,102664.19
2023-02-11T22:51:36.455Z,102661.88
2023-02-11T22:53:38.890Z,102660.03
2023-02-11T22:55:40.542Z,102655.28
2023-02-11T22:57:42.423Z,102650.09
2023-02-11T22:59:44.310Z,102650.34
2023-02-11T23:01:46.801Z,102648.47
2023-02-11T23:03:55.560Z,102649.72
2023-02-11T23:06:01.531Z,102654.28
2023-02-11T23:08:03.406Z,102655.75
2023-02-11T23:10:06.373Z,102663.44
2023-02-11T23:12:08.890Z,102666.56
2023-02-11T23:14:10.558Z,102664.69
2023-02-11T23:16:14.956Z,102673.41
2023-02-11T23:18:16.746Z,102673.22
2023-02-11T23:20:20.761Z,102670.06
2023-02-11T23:22:22.383Z,102668.44
2023-02-11T23:24:26.817Z,102669.03
2023-02-11T23:26:28.756Z,102672.13
2023-02-11T23:28:30.802Z,102679.38
2023-02-11T23:30:34.826Z,102678.09
2023-02-11T23:32:38.414Z,102684.34
2023-02-11T23:34:40.073Z,102687.22
2023-02-11T23:36:43.196Z,102685.59
2023-02-11T23:38:45.795Z,102692.03
2023-02-11T23:40:47.457Z,102692.03
2023-02-11T23:42:52.844Z,102694.72
2023-02-11T23:44:54.460Z,102697.19
2023-02-11T23:46:56.359Z,102690.34
2023-02-11T23:48:58.622Z,102690.09